Milan, Washington
Current Conditions -  °F | °C
As of 8:07 AM on Thursday 23 Oct 2014 (Local Time) from KDEW Reporting Station
Light Rain Light Rain  
Wind Chill: 51°   Ceiling: 5000
Heat Index: 51°   Visibility: 9mi
Dew Point: 49°   Wind: 8mph
Humidity: 92%   Direction: 160°SSE
Pressure: 29.8"   Gusts: NA
Location:  47.9163°N, 117.271°W
Report Text: KDEW 231507Z AUTO 16007KT 9SM -RA SCT015 SCT026 OVC050 11/09 A2980 RMK AO2 RAB00 P0001 T01060094
Loading
Personal Weather Stations






























Interactive Weather Map
Tropical Storm Tracking
New forecast layout! Learn more

10-Day Weather Forecast

Advertisements
Track Severe Weather on mobile